Aérodrome :
LOGIN :

S'inscrire | Disclaimer

   EN    FR    IT 

 










Légende :    VFR   VFR Marginal   IFR   IFR Intensif   IFR Très Intensif
Visi : 
Plafond : 
>= 8 km
>= 3000ft
5 à 8 km
1000 à 3000 ft
1500m à 5 km
500 à 1000 ft
800 à 1500m
200 à 500 ft
< 800m
< 200 ft
Symboles :   Orages  Brouillard  Fortes neiges  Fortes précipitations  Vent > 20 kt
SIGMETs :   Divers  Orages  Givrage  Turbulence  Onde Orograph.  Cendres Volcan.






- Altitude de l'aérodrome : 12 ft
- Code IATA : BCN


LEBL - Barcelone

DERNIER METAR :
  • 232030Z 22007KT 9999 FEW030 21/15 Q1018 NOSIG

METARs EXPIRÉS :
  • 232000Z 22008KT 9999 FEW030 21/15 Q1018 NOSIG
  • 231930Z 22008KT 9999 FEW030 22/15 Q1017 NOSIG
  • 231900Z 21009KT 9999 FEW030 22/15 Q1017 NOSIG
  • 231830Z 21010KT 9999 FEW030 22/15 Q1017 NOSIG
  • 231800Z 20009KT 9999 FEW030 22/15 Q1017 NOSIG

TAF TAF LEBL
Valide du 23 à 18h jusqu'au 24 à 18h UTC


231700Z 2318/2418 20010KT 9999 FEW025 TX26/2412Z TN18/2406Z
BECMG 2320/2322 33006KT
BECMG 2409/2411 20010KT



MET'MAP, la Météo Aéronautique d'un coup d'oeil ! - Copyright ORBIFLY Décembre 2007 - Disclaimer

ORBIFLY MET'MAP TEAM :

Programmation & Développement : Alexandra Zaïnal
Sur une idée originale de : Baudouin d'Aumeries
Assistance à la programmation : Marc-Olivier Méhu
Soutien technique & logistique : Manuel Goepfert

Contact : metmap@orbifly.com




SOURCES & CREDITS :

   NOAA